Time;durP1;ratioP1;P1;durP2;ratioP2;P2;SDS_P1;SDS_P2;PMS_P1;PMS_P2;Temp;Humidity;BMP_temperature;BMP_pressure;BME280_temperature;BME280_humidity;BME280_pressure;Samples;Min_cycle;Max_cycle;Signal;HPM_P1;HPM_P2
2023/04/05 00:00:46;;;;;;;3.70;0.90;;;;;;;0.81;92.76;101644.81;5173507;28;20455;-69
2023/04/05 00:03:17;;;;;;;3.58;1.30;;;;;;;0.65;93.71;101637.63;5193465;28;20064;-70
2023/04/05 00:05:48;;;;;;;2.85;1.10;;;;;;;0.56;95.11;101643.44;5193111;28;20049;-70
2023/04/05 00:08:22;;;;;;;3.55;1.33;;;;;;;0.50;95.36;101643.31;5189848;28;20033;-71
2023/04/05 00:10:53;;;;;;;2.10;1.10;;;;;;;0.51;94.29;101634.75;5191901;28;20034;-71
2023/04/05 00:13:24;;;;;;;3.10;1.05;;;;;;;0.46;94.40;101633.81;5190518;28;20211;-71
2023/04/05 00:15:57;;;;;;;4.22;1.20;;;;;;;0.43;95.31;101630.28;5193495;28;20029;-71
2023/04/05 00:18:32;;;;;;;2.67;1.13;;;;;;;0.49;95.55;101636.44;5190179;28;20047;-71
2023/04/05 00:21:03;;;;;;;2.40;1.10;;;;;;;0.47;94.24;101632.06;5192779;28;20395;-70
2023/04/05 00:23:37;;;;;;;2.25;1.10;;;;;;;0.68;93.84;101632.53;5192211;28;20116;-70
2023/04/05 00:26:07;;;;;;;2.08;1.10;;;;;;;0.42;93.32;101634.53;5191997;28;21163;-71
2023/04/05 00:28:37;;;;;;;4.10;1.50;;;;;;;0.37;94.90;101641.28;5190059;28;20032;-70
2023/04/05 00:31:08;;;;;;;3.40;1.40;;;;;;;0.59;92.63;101637.50;5191189;28;20082;-70
2023/04/05 00:33:38;;;;;;;3.97;1.70;;;;;;;0.40;92.58;101633.66;5190628;28;20033;-70
2023/04/05 00:36:17;;;;;;;2.95;1.30;;;;;;;0.23;92.61;101634.97;5196056;22;20496;-74
2023/04/05 00:38:48;;;;;;;2.88;1.50;;;;;;;0.23;95.11;101632.41;5173012;28;20116;-72
2023/04/05 00:41:18;;;;;;;4.82;1.77;;;;;;;0.24;93.78;101629.00;5176149;28;20076;-73
2023/04/05 00:43:49;;;;;;;2.97;1.75;;;;;;;0.23;94.58;101632.41;5175197;28;20381;-72
2023/04/05 00:46:19;;;;;;;4.70;2.00;;;;;;;0.29;94.63;101637.69;5155017;28;20083;-72
2023/04/05 00:48:49;;;;;;;5.20;1.73;;;;;;;0.31;93.95;101636.03;5169072;28;20427;-72
2023/04/05 00:51:20;;;;;;;5.40;1.80;;;;;;;0.48;91.93;101632.13;5151915;28;20114;-73
2023/04/05 00:53:51;;;;;;;5.05;1.90;;;;;;;0.49;91.10;101626.16;5139908;28;20037;-74
2023/04/05 00:56:23;;;;;;;5.32;1.90;;;;;;;0.22;91.64;101629.81;5150533;28;20037;-72
2023/04/05 00:58:53;;;;;;;6.35;2.13;;;;;;;0.13;92.60;101630.47;5154798;28;20283;-72
2023/04/05 01:01:26;;;;;;;5.65;2.40;;;;;;;0.08;92.69;101628.63;5153181;28;20705;-72
2023/04/05 01:04:01;;;;;;;6.63;2.50;;;;;;;0.07;92.14;101629.47;5172645;28;20037;-73
2023/04/05 01:06:54;;;;;;;7.82;2.40;;;;;;;0.18;92.35;101631.44;5176100;28;20029;-72
2023/04/05 01:09:43;;;;;;;13.20;3.83;;;;;;;0.26;92.05;101632.50;5154409;28;20034;-72
2023/04/05 01:12:17;;;;;;;30.23;9.02;;;;;;;0.25;92.05;101623.03;5153297;28;20034;-73
2023/04/05 01:14:50;;;;;;;30.73;9.65;;;;;;;0.25;90.81;101629.88;5153002;28;20092;-70
2023/04/05 01:17:22;;;;;;;26.55;8.55;;;;;;;0.25;91.60;101633.31;5167809;28;20030;-72
2023/04/05 01:19:59;;;;;;;21.83;7.07;;;;;;;0.12;90.02;101628.75;5174766;28;20394;-72
2023/04/05 01:22:50;;;;;;;9.63;3.50;;;;;;;0.11;92.34;101634.72;5172201;28;21120;-73
2023/04/05 01:25:40;;;;;;;12.52;4.75;;;;;;;0.16;91.39;101635.69;5174364;28;20403;-74
2023/04/05 01:28:37;;;;;;;16.05;5.40;;;;;;;0.13;91.31;101629.59;5167124;28;20072;-72
2023/04/05 01:31:35;;;;;;;14.55;5.05;;;;;;;0.40;89.54;101631.06;5179012;28;20412;-73
2023/04/05 01:34:12;;;;;;;12.52;3.63;;;;;;;0.33;90.45;101631.78;5173726;28;20128;-72
2023/04/05 01:36:47;;;;;;;7.72;2.53;;;;;;;0.21;91.31;101639.22;5177526;28;20054;-72
2023/04/05 01:39:20;;;;;;;5.78;1.90;;;;;;;0.09;94.09;101627.78;5157033;28;20034;-72
2023/04/05 01:41:50;;;;;;;7.40;2.38;;;;;;;0.27;94.11;101610.22;5153712;28;20022;-73
2023/04/05 01:44:20;;;;;;;7.90;2.65;;;;;;;0.25;93.71;101630.72;5175232;28;20060;-73
2023/04/05 01:46:51;;;;;;;6.70;2.13;;;;;;;0.23;92.78;101629.84;5175291;28;20514;-72
2023/04/05 01:49:23;;;;;;;5.85;1.75;;;;;;;0.33;92.74;101624.06;5176382;28;20112;-72
2023/04/05 01:51:53;;;;;;;6.97;1.92;;;;;;;0.37;92.80;101619.88;5174365;28;20084;-72
2023/04/05 01:54:23;;;;;;;3.25;1.40;;;;;;;0.25;92.28;101614.47;5176748;28;20526;-72
2023/04/05 01:56:54;;;;;;;5.97;1.48;;;;;;;-0.15;93.55;101610.94;5172145;28;20033;-71
2023/04/05 01:59:24;;;;;;;3.95;1.73;;;;;;;0.04;95.15;101619.97;5177864;28;20042;-71
2023/04/05 02:01:54;;;;;;;2.83;1.23;;;;;;;0.16;94.22;101625.41;5164481;28;20515;-72
2023/04/05 02:04:25;;;;;;;3.53;1.20;;;;;;;0.24;93.83;101618.72;5172762;28;20041;-73
2023/04/05 02:06:55;;;;;;;1.85;1.02;;;;;;;0.29;93.78;101619.72;5158037;28;20484;-72
2023/04/05 02:09:25;;;;;;;3.63;1.17;;;;;;;-0.20;95.48;101615.94;5172658;28;20026;-72
2023/04/05 02:11:56;;;;;;;3.80;1.25;;;;;;;-0.01;96.02;101621.56;5177302;28;20053;-72
2023/04/05 02:14:26;;;;;;;3.40;1.13;;;;;;;-0.12;95.74;101614.47;5159036;28;20492;-73
2023/04/05 02:16:57;;;;;;;2.75;1.08;;;;;;;0.04;97.74;101608.84;5175006;28;20033;-73
2023/04/05 02:19:28;;;;;;;3.90;1.40;;;;;;;-0.29;97.76;101604.59;5176312;28;20042;-73
2023/04/05 02:21:58;;;;;;;3.63;1.40;;;;;;;-0.12;99.13;101608.44;5175657;28;20022;-72
2023/04/05 02:24:29;;;;;;;4.53;1.30;;;;;;;-0.24;98.74;101614.16;5177969;28;20387;-72
2023/04/05 02:26:59;;;;;;;3.50;1.15;;;;;;;-0.15;99.23;101616.97;5171880;28;20064;-72
2023/04/05 02:29:30;;;;;;;5.63;1.58;;;;;;;0.04;98.43;101614.84;5157211;28;20037;-72
2023/04/05 02:32:00;;;;;;;2.95;1.17;;;;;;;0.11;97.58;101621.88;5175395;28;20021;-72
2023/04/05 02:34:32;;;;;;;3.25;1.13;;;;;;;-0.04;96.72;101609.50;5174144;28;20034;-72
2023/04/05 02:37:02;;;;;;;2.53;1.02;;;;;;;-0.13;97.57;101614.41;5156684;28;20029;-73
2023/04/05 02:39:33;;;;;;;2.15;1.02;;;;;;;-0.05;98.72;101608.63;5179387;28;20034;-72
2023/04/05 02:42:03;;;;;;;3.40;1.10;;;;;;;0.05;98.67;101600.31;5155808;28;20021;-73
2023/04/05 02:44:34;;;;;;;4.70;1.40;;;;;;;0.04;97.23;101599.41;5175506;28;20029;-72
2023/04/05 02:47:04;;;;;;;3.22;1.38;;;;;;;0.25;96.84;101594.75;5154444;28;20496;-72
2023/04/05 02:49:35;;;;;;;4.10;1.50;;;;;;;0.05;97.83;101598.59;5157822;28;20125;-71
2023/04/05 02:52:05;;;;;;;3.60;1.50;;;;;;;0.08;98.10;101590.09;5170722;28;20096;-72
2023/04/05 02:54:35;;;;;;;3.90;1.30;;;;;;;0.18;97.17;101587.75;5177252;28;20021;-71
2023/04/05 02:57:09;;;;;;;2.60;1.30;;;;;;;0.21;97.87;101592.09;5170992;28;20022;-73
2023/04/05 02:59:39;;;;;;;4.20;1.40;;;;;;;0.08;97.75;101590.09;5173843;28;20034;-72
2023/04/05 03:02:10;;;;;;;2.72;1.30;;;;;;;0.23;98.19;101591.28;5179725;28;20542;-72
2023/04/05 03:04:40;;;;;;;3.88;1.58;;;;;;;0.38;97.71;101586.47;5179668;28;20026;-72
2023/04/05 03:07:13;;;;;;;3.03;1.40;;;;;;;0.40;97.67;101582.22;5178526;28;20516;-73
2023/04/05 03:09:45;;;;;;;3.95;1.60;;;;;;;0.30;98.18;101577.75;5178468;28;20432;-72
2023/04/05 03:12:15;;;;;;;4.95;1.50;;;;;;;0.10;98.51;101584.16;5177140;28;20033;-72
2023/04/05 03:14:45;;;;;;;3.80;1.63;;;;;;;0.00;99.53;101582.22;5181636;28;20030;-72
2023/04/05 03:17:16;;;;;;;3.20;1.67;;;;;;;0.06;100.00;101577.19;5178011;28;20237;-72
2023/04/05 03:19:47;;;;;;;2.97;1.17;;;;;;;0.21;99.39;101577.53;5177423;28;20033;-71
2023/04/05 03:22:17;;;;;;;4.80;1.77;;;;;;;0.20;98.03;101580.94;5144447;28;20029;-73
2023/04/05 03:24:47;;;;;;;3.00;1.55;;;;;;;0.23;98.18;101573.28;5181228;28;20313;-71
2023/04/05 03:27:18;;;;;;;3.40;1.20;;;;;;;0.15;97.00;101571.38;5178083;28;20518;-71
2023/04/05 03:29:49;;;;;;;3.53;1.35;;;;;;;0.34;97.96;101569.25;5160186;28;20476;-72
2023/04/05 03:32:19;;;;;;;6.13;1.55;;;;;;;0.34;97.05;101564.13;5178955;28;20547;-72
2023/04/05 03:34:50;;;;;;;2.90;1.40;;;;;;;0.28;97.08;101568.25;5173773;28;20028;-72
2023/04/05 03:37:20;;;;;;;2.28;1.10;;;;;;;0.21;97.91;101562.13;5179418;28;20249;-74
2023/04/05 03:39:50;;;;;;;2.70;1.20;;;;;;;0.25;98.56;101555.34;5159550;28;20030;-73
2023/04/05 03:42:21;;;;;;;2.33;1.13;;;;;;;0.26;99.44;101551.94;5177661;28;20033;-73
2023/04/05 03:44:52;;;;;;;3.05;1.23;;;;;;;0.23;99.91;101557.03;5176741;28;20026;-72
2023/04/05 03:47:22;;;;;;;2.78;1.20;;;;;;;0.18;100.00;101544.06;5175099;28;20061;-74
2023/04/05 03:49:52;;;;;;;4.38;1.40;;;;;;;0.39;100.00;101548.81;5158026;28;20032;-71
2023/04/05 03:52:23;;;;;;;4.90;1.30;;;;;;;0.50;98.91;101555.00;5178504;28;20040;-73
2023/04/05 03:54:53;;;;;;;3.15;1.25;;;;;;;0.36;98.53;101554.72;5156676;28;20089;-71
2023/04/05 03:57:24;;;;;;;5.38;1.40;;;;;;;0.18;99.96;101546.63;5177420;28;20531;-72
2023/04/05 03:59:54;;;;;;;5.05;1.20;;;;;;;0.38;100.00;101545.34;5161475;28;20408;-71
2023/04/05 04:02:25;;;;;;;2.70;1.20;;;;;;;0.34;100.00;101543.56;5174887;28;20030;-73
2023/04/05 04:04:55;;;;;;;3.40;1.17;;;;;;;0.27;100.00;101540.81;5174224;28;20046;-72
2023/04/05 04:07:26;;;;;;;3.60;1.77;;;;;;;0.16;100.00;101543.16;5173129;28;20122;-71
2023/04/05 04:09:56;;;;;;;4.47;1.20;;;;;;;0.10;100.00;101560.16;5156697;28;20021;-72
2023/04/05 04:12:26;;;;;;;3.92;1.30;;;;;;;0.17;100.00;101547.47;5152085;28;20030;-72
2023/04/05 04:14:56;;;;;;;3.78;1.23;;;;;;;0.24;100.00;101546.75;5155660;28;20038;-73
2023/04/05 04:17:31;;;;;;;5.15;1.30;;;;;;;0.41;100.00;101558.25;5152236;28;20032;-72
2023/04/05 04:20:09;;;;;;;4.10;1.42;;;;;;;0.86;98.09;101555.75;5166339;28;20033;-72
2023/04/05 04:22:40;;;;;;;4.72;2.00;;;;;;;0.59;97.22;101562.91;5173166;28;20121;-72
2023/04/05 04:25:11;;;;;;;6.70;2.20;;;;;;;0.51;98.18;101565.34;5172707;28;20555;-71
2023/04/05 04:27:42;;;;;;;5.88;2.30;;;;;;;0.72;96.80;101559.75;5151283;28;20114;-72
2023/04/05 04:30:14;;;;;;;4.00;2.00;;;;;;;0.61;97.47;101564.69;5175216;28;20089;-71
2023/04/05 04:32:50;;;;;;;4.30;2.00;;;;;;;0.54;97.47;101569.69;5178898;28;20030;-71
2023/04/05 04:35:23;;;;;;;2.50;1.30;;;;;;;0.71;99.33;101563.19;5156847;28;20026;-72
2023/04/05 04:37:57;;;;;;;4.07;1.35;;;;;;;0.94;97.60;101560.22;5176950;28;20026;-71
2023/04/05 04:40:38;;;;;;;1.98;1.10;;;;;;;0.68;96.18;101553.69;5173821;28;20700;-71
2023/04/05 04:43:17;;;;;;;3.00;1.33;;;;;;;0.66;98.22;101568.22;5157796;28;20014;-72
2023/04/05 04:45:50;;;;;;;2.97;1.40;;;;;;;0.89;98.65;101564.38;5174850;28;20483;-69
2023/04/05 04:48:21;;;;;;;4.20;1.27;;;;;;;0.86;97.94;101561.75;5174390;28;20483;-72
2023/04/05 04:50:51;;;;;;;6.47;1.75;;;;;;;0.58;98.50;101574.91;5172113;28;20029;-72
2023/04/05 04:53:21;;;;;;;3.63;1.50;;;;;;;0.76;100.00;101562.41;5175773;28;20018;-73
2023/04/05 04:55:53;;;;;;;3.45;1.35;;;;;;;0.92;100.00;101564.44;5175764;28;20026;-74
2023/04/05 04:58:24;;;;;;;3.20;1.35;;;;;;;0.71;98.45;101565.75;5154519;28;20045;-73
2023/04/05 05:00:57;;;;;;;6.60;1.30;;;;;;;0.93;99.13;101562.75;5175972;28;20027;-72
2023/04/05 05:03:27;;;;;;;4.18;1.45;;;;;;;1.04;97.74;101564.66;5171581;28;20022;-72
2023/04/05 05:05:57;;;;;;;4.15;1.48;;;;;;;0.83;99.54;101566.84;5177804;28;20045;-72
2023/04/05 05:08:28;;;;;;;4.00;1.80;;;;;;;1.20;96.87;101558.94;5168641;28;20353;-71
2023/04/05 05:10:59;;;;;;;2.92;1.50;;;;;;;1.17;94.36;101564.06;5177322;28;20021;-72
2023/04/05 05:13:30;;;;;;;4.97;1.70;;;;;;;1.11;95.95;101563.97;5176399;28;20438;-71
2023/04/05 05:16:03;;;;;;;5.22;1.85;;;;;;;1.16;95.83;101564.91;5156269;28;20044;-71
2023/04/05 05:18:33;;;;;;;2.97;1.40;;;;;;;1.15;95.71;101570.00;5159188;28;20029;-72
2023/04/05 05:21:03;;;;;;;4.10;1.23;;;;;;;1.34;95.63;101570.38;5176437;28;20186;-71
2023/04/05 05:23:34;;;;;;;3.90;1.50;;;;;;;1.23;94.86;101569.28;5178987;28;20038;-72
2023/04/05 05:26:05;;;;;;;3.53;1.48;;;;;;;1.61;94.13;101563.06;5174962;28;20026;-69
2023/04/05 05:28:35;;;;;;;3.00;1.23;;;;;;;1.41;93.56;101569.63;5175277;28;20029;-72
2023/04/05 05:31:06;;;;;;;3.15;1.35;;;;;;;1.45;95.82;101568.84;5178376;28;20030;-73
2023/04/05 05:33:36;;;;;;;5.20;1.30;;;;;;;1.57;95.48;101571.59;5180175;28;20026;-72
2023/04/05 05:36:07;;;;;;;2.00;1.10;;;;;;;1.66;95.51;101566.63;5177086;28;20974;-71
2023/04/05 05:38:37;;;;;;;4.45;1.50;;;;;;;1.31;96.71;101575.47;5177833;28;20022;-73
2023/04/05 05:41:08;;;;;;;4.22;1.27;;;;;;;1.52;96.33;101570.66;5175867;28;20025;-70
2023/04/05 05:43:38;;;;;;;6.63;1.65;;;;;;;1.30;95.70;101571.16;5176870;28;20543;-72
2023/04/05 05:46:08;;;;;;;2.13;1.08;;;;;;;1.48;97.14;101568.91;5177392;28;20030;-72
2023/04/05 05:48:40;;;;;;;3.33;1.20;;;;;;;1.55;95.33;101568.13;5156454;28;20108;-72
2023/04/05 05:51:11;;;;;;;5.40;1.45;;;;;;;1.71;95.95;101566.69;5160335;28;20022;-72
2023/04/05 05:53:41;;;;;;;2.90;1.20;;;;;;;1.70;94.76;101565.81;5158919;28;20809;-71
2023/04/05 05:56:11;;;;;;;6.45;1.55;;;;;;;1.51;96.57;101565.47;5174415;28;20030;-72
2023/04/05 05:58:42;;;;;;;4.50;1.60;;;;;;;1.58;96.55;101565.59;5174792;28;20026;-73
2023/04/05 06:01:13;;;;;;;3.70;1.70;;;;;;;1.84;96.83;101556.59;5177564;28;20022;-70
2023/04/05 06:03:43;;;;;;;4.40;1.73;;;;;;;1.97;94.28;101558.53;5161661;28;20438;-72
2023/04/05 06:06:13;;;;;;;4.97;1.67;;;;;;;1.89;93.05;101570.41;5178955;28;20065;-72
2023/04/05 06:08:46;;;;;;;5.30;1.77;;;;;;;1.92;91.83;101561.03;5177124;28;20105;-73
2023/04/05 06:11:24;;;;;;;4.28;1.75;;;;;;;2.17;89.12;101568.25;5160270;28;20034;-73
2023/04/05 06:13:54;;;;;;;3.08;1.45;;;;;;;2.31;90.00;101566.72;5177544;28;20018;-72
2023/04/05 06:16:26;;;;;;;5.05;1.70;;;;;;;2.45;90.02;101564.31;5177265;28;20110;-72
2023/04/05 06:18:56;;;;;;;3.75;1.40;;;;;;;2.23;91.01;101565.78;5175803;28;20494;-72
2023/04/05 06:21:27;;;;;;;4.30;1.70;;;;;;;2.09;91.36;101568.97;5158893;28;20029;-73
2023/04/05 06:23:57;;;;;;;4.28;1.50;;;;;;;2.13;91.67;101563.06;5160585;28;20022;-74
2023/04/05 06:26:28;;;;;;;5.13;1.67;;;;;;;1.99;90.96;101569.72;5178820;28;20050;-73
2023/04/05 06:28:59;;;;;;;3.92;1.70;;;;;;;2.29;92.18;101572.69;5158396;28;20069;-72
2023/04/05 06:31:34;;;;;;;4.18;1.58;;;;;;;2.32;91.45;101572.75;5177573;28;20037;-72
2023/04/05 06:34:05;;;;;;;2.85;1.50;;;;;;;2.15;91.76;101567.34;5157528;28;20029;-73
2023/04/05 06:36:35;;;;;;;3.55;1.75;;;;;;;2.33;91.69;101565.03;5181097;28;20030;-72
2023/04/05 06:39:06;;;;;;;4.72;1.60;;;;;;;2.49;93.52;101566.13;5180120;28;20028;-72
2023/04/05 06:41:36;;;;;;;2.25;1.30;;;;;;;2.66;93.25;101562.03;5176357;28;20018;-73
2023/04/05 06:44:06;;;;;;;2.90;1.50;;;;;;;2.61;92.53;101567.13;5177385;28;20033;-72
2023/04/05 06:46:37;;;;;;;4.43;1.50;;;;;;;2.51;94.32;101559.25;5175611;28;20411;-73
2023/04/05 06:49:07;;;;;;;6.10;1.60;;;;;;;2.59;94.76;101557.63;5171226;28;20057;-74
2023/04/05 06:51:38;;;;;;;4.57;1.60;;;;;;;2.69;94.99;101557.75;5157672;28;20030;-72
2023/04/05 06:54:08;;;;;;;4.18;1.95;;;;;;;2.37;93.62;101558.22;5154050;28;20084;-70
2023/04/05 06:56:38;;;;;;;4.20;1.50;;;;;;;2.40;94.80;101561.69;5174406;28;20032;-72
2023/04/05 06:59:09;;;;;;;4.50;1.85;;;;;;;2.89;90.20;101561.41;5172664;28;20037;-70
2023/04/05 07:01:39;;;;;;;3.85;1.83;;;;;;;2.86;90.87;101557.94;5176421;28;20443;-72
2023/04/05 07:04:11;;;;;;;3.30;1.65;;;;;;;2.81;90.19;101555.31;5176220;28;20113;-71
2023/04/05 07:06:41;;;;;;;4.22;1.88;;;;;;;2.97;91.27;101554.63;5175991;28;20037;-72
2023/04/05 07:09:11;;;;;;;6.32;1.88;;;;;;;3.18;90.82;101554.00;5171893;28;20034;-72
2023/04/05 07:11:42;;;;;;;4.95;1.90;;;;;;;3.43;88.69;101549.06;5157889;28;20368;-72
2023/04/05 07:14:12;;;;;;;3.15;1.67;;;;;;;3.42;89.03;101549.91;5172466;28;20104;-72
2023/04/05 07:16:42;;;;;;;4.75;2.15;;;;;;;3.38;87.77;101549.88;5176347;28;20040;-72
2023/04/05 07:19:13;;;;;;;3.30;1.58;;;;;;;3.58;87.06;101547.47;5171124;28;20503;-72
2023/04/05 07:21:43;;;;;;;3.53;1.50;;;;;;;3.84;86.65;101538.19;5173372;28;20657;-73
2023/04/05 07:24:13;;;;;;;4.95;2.00;;;;;;;3.77;86.08;101544.16;5178817;28;20616;-72
2023/04/05 07:26:44;;;;;;;2.85;1.75;;;;;;;3.96;85.07;101537.41;5172755;28;20038;-72
2023/04/05 07:29:14;;;;;;;2.80;1.60;;;;;;;3.85;87.20;101539.94;5152112;28;20325;-71
2023/04/05 07:31:45;;;;;;;3.20;1.60;;;;;;;4.25;87.45;101544.47;5181573;28;20036;-72
2023/04/05 07:34:15;;;;;;;4.57;1.85;;;;;;;4.02;86.86;101538.31;5175184;28;20165;-72
2023/04/05 07:36:45;;;;;;;3.65;1.58;;;;;;;4.24;87.48;101540.16;5178420;28;20029;-73
2023/04/05 07:39:16;;;;;;;3.33;1.70;;;;;;;4.54;86.25;101537.72;5157054;28;20045;-71
2023/04/05 07:41:46;;;;;;;2.97;1.60;;;;;;;4.97;86.78;101531.81;5176095;28;20032;-72
2023/04/05 07:44:16;;;;;;;7.90;2.00;;;;;;;4.64;84.13;101531.69;5180197;28;20403;-73
2023/04/05 07:46:46;;;;;;;8.25;1.90;;;;;;;4.69;86.67;101535.19;5164577;28;20491;-72
2023/04/05 07:49:17;;;;;;;4.88;2.25;;;;;;;5.04;85.30;101527.50;5150769;28;20109;-73
2023/04/05 07:51:47;;;;;;;4.05;1.85;;;;;;;5.76;82.69;101528.41;5154900;28;20030;-72
2023/04/05 07:54:17;;;;;;;5.15;1.98;;;;;;;5.81;82.06;101526.69;5155284;28;20388;-71
2023/04/05 07:56:48;;;;;;;3.75;1.98;;;;;;;5.50;81.51;101524.94;5172222;28;20317;-70
2023/04/05 07:59:19;;;;;;;7.05;2.28;;;;;;;6.00;80.35;101529.28;5174985;28;20042;-74
2023/04/05 08:01:49;;;;;;;6.57;2.03;;;;;;;6.22;78.24;101524.91;5152066;28;20026;-73
2023/04/05 08:04:19;;;;;;;5.55;2.13;;;;;;;6.36;75.69;101528.28;5169957;28;20034;-73
2023/04/05 08:06:50;;;;;;;4.25;1.80;;;;;;;6.01;77.22;101535.31;5179731;28;20026;-73
2023/04/05 08:09:20;;;;;;;2.63;1.48;;;;;;;6.51;74.41;101529.13;5168692;28;20030;-73
2023/04/05 08:11:51;;;;;;;5.50;1.75;;;;;;;7.00;72.52;101521.94;5163922;28;20267;-72
2023/04/05 08:14:21;;;;;;;3.75;1.63;;;;;;;7.02;70.11;101517.59;5172367;28;20045;-72
2023/04/05 08:16:51;;;;;;;3.60;1.50;;;;;;;7.30;70.67;101515.66;5178474;28;20080;-72
2023/04/05 08:19:22;;;;;;;8.90;1.98;;;;;;;7.04;69.44;101510.63;5172086;28;20018;-73
2023/04/05 08:21:52;;;;;;;5.65;1.60;;;;;;;7.12;71.13;101516.66;5172439;28;20104;-74
2023/04/05 08:24:22;;;;;;;3.72;1.70;;;;;;;7.58;71.61;101506.78;5176370;28;20026;-73
2023/04/05 08:26:53;;;;;;;5.53;1.63;;;;;;;9.61;67.13;101487.63;5174289;28;20092;-72
2023/04/05 08:29:23;;;;;;;5.65;1.67;;;;;;;9.97;63.72;101489.59;5176912;28;20026;-73
2023/04/05 08:31:57;;;;;;;4.10;1.60;;;;;;;10.20;63.90;101490.03;5182086;28;20394;-73
2023/04/05 08:34:27;;;;;;;5.38;1.55;;;;;;;11.30;62.11;101489.34;5161650;28;20403;-73
2023/04/05 08:37:01;;;;;;;2.80;1.50;;;;;;;11.60;57.30;101496.47;5155544;28;20084;-73
2023/04/05 08:39:34;;;;;;;4.97;1.55;;;;;;;15.81;53.16;101468.88;5174759;28;20404;-73
2023/04/05 08:42:13;;;;;;;5.00;1.67;;;;;;;15.31;52.70;101481.53;5180144;28;20483;-73
2023/04/05 08:44:45;;;;;;;3.92;1.58;;;;;;;13.07;50.97;101477.41;5159801;28;20919;-73
2023/04/05 08:47:18;;;;;;;2.92;1.30;;;;;;;11.56;53.36;101492.22;5168466;28;20166;-73
2023/04/05 08:49:48;;;;;;;4.85;1.48;;;;;;;10.47;53.86;101489.50;5175531;28;20044;-73
2023/04/05 08:52:19;;;;;;;7.60;1.30;;;;;;;9.98;57.46;101488.69;5171664;28;20026;-74
2023/04/05 08:54:49;;;;;;;3.08;1.30;;;;;;;9.69;58.00;101492.72;5170774;28;20037;-73
2023/04/05 08:57:27;;;;;;;4.85;2.05;;;;;;;9.88;57.76;101483.66;5173837;28;20034;-73
2023/04/05 09:00:00;;;;;;;5.53;1.70;;;;;;;9.89;56.41;101485.38;5156576;28;20627;-73
2023/04/05 09:02:31;;;;;;;11.00;3.70;;;;;;;9.27;60.20;101496.03;5152684;28;20506;-73
2023/04/05 09:05:07;;;;;;;3.88;1.65;;;;;;;8.97;60.05;101493.91;5175268;28;20265;-73
2023/04/05 09:07:40;;;;;;;4.47;1.55;;;;;;;9.69;59.72;101493.56;5175220;28;20440;-73
2023/04/05 09:10:12;;;;;;;3.70;1.40;;;;;;;9.70;59.04;101484.88;5164291;28;20072;-73
2023/04/05 09:12:43;;;;;;;3.88;1.55;;;;;;;9.73;57.81;101483.94;5174006;28;20115;-73
2023/04/05 09:15:15;;;;;;;4.22;1.77;;;;;;;9.98;59.72;101488.69;5176268;28;20495;-73
2023/04/05 09:17:45;;;;;;;5.00;1.70;;;;;;;10.47;58.38;101481.66;5174207;28;20026;-74
2023/04/05 09:20:15;;;;;;;6.10;1.92;;;;;;;10.21;58.32;101483.06;5167263;28;20045;-74
2023/04/05 09:22:46;;;;;;;4.28;1.60;;;;;;;10.04;57.26;101492.97;5156589;28;20018;-74
2023/04/05 09:25:39;;;;;;;3.20;1.45;;;;;;;9.92;55.66;101487.94;5173263;28;20060;-73
2023/04/05 09:28:09;;;;;;;2.80;1.23;;;;;;;9.86;56.74;101485.44;5171110;28;20045;-73
2023/04/05 09:30:44;;;;;;;5.13;1.45;;;;;;;9.63;56.22;101485.00;5170468;28;20173;-73
2023/04/05 09:33:18;;;;;;;5.90;1.88;;;;;;;9.48;57.03;101485.25;5168752;28;20216;-73
2023/04/05 09:35:50;;;;;;;2.88;1.38;;;;;;;9.48;56.28;101485.25;5151874;28;20040;-74
2023/04/05 09:38:44;;;;;;;3.80;1.20;;;;;;;9.81;56.81;101482.06;5149388;28;20033;-73
2023/04/05 09:41:14;;;;;;;2.88;1.30;;;;;;;9.98;57.09;101477.41;5170245;28;20239;-73
2023/04/05 09:43:45;;;;;;;5.00;1.48;;;;;;;9.55;56.39;101484.25;5170347;28;20026;-75
2023/04/05 09:46:28;;;;;;;3.10;1.30;;;;;;;10.10;56.06;101480.66;5178455;28;20044;-74
2023/04/05 09:49:02;;;;;;;2.80;1.15;;;;;;;8.57;58.17;101482.28;5172384;28;20522;-73
2023/04/05 09:51:37;;;;;;;3.90;1.63;;;;;;;9.48;58.14;101470.44;5157268;28;20030;-74
2023/04/05 09:54:10;;;;;;;4.60;1.48;;;;;;;9.62;56.62;101478.06;5176322;28;20037;-73
2023/04/05 09:56:53;;;;;;;4.07;1.30;;;;;;;9.65;58.15;101463.19;5178401;28;20038;-72
2023/04/05 09:59:23;;;;;;;3.47;1.58;;;;;;;9.51;56.26;101474.78;5159158;28;20023;-72
2023/04/05 10:01:53;;;;;;;2.90;1.50;;;;;;;9.39;55.37;101469.75;5178198;28;20025;-74
2023/04/05 10:04:24;;;;;;;5.25;1.50;;;;;;;9.74;56.49;101470.88;5173409;28;20121;-72
2023/04/05 10:06:55;;;;;;;4.32;1.38;;;;;;;9.31;53.76;101471.63;5174326;28;20483;-73
2023/04/05 10:09:25;;;;;;;3.53;1.33;;;;;;;9.48;52.69;101469.59;5153971;28;20033;-71
2023/04/05 10:11:56;;;;;;;2.40;1.38;;;;;;;9.01;53.49;101474.72;5175672;28;20026;-70
2023/04/05 10:14:26;;;;;;;2.60;1.25;;;;;;;8.61;53.26;101476.16;5178464;28;20502;-71
2023/04/05 10:17:26;;;;;;;3.60;1.50;;;;;;;9.11;52.83;101463.28;5178253;28;20483;-72
2023/04/05 10:20:20;;;;;;;3.17;1.08;;;;;;;9.47;54.32;101460.06;5172261;28;20451;-71
2023/04/05 10:22:50;;;;;;;5.47;1.27;;;;;;;9.76;53.38;101455.16;5158171;28;20026;-73
2023/04/05 10:25:30;;;;;;;3.03;1.40;;;;;;;9.33;51.59;101460.28;5181185;28;20036;-73
2023/04/05 10:28:09;;;;;;;3.95;1.23;;;;;;;9.38;52.65;101457.59;5159521;28;20269;-72
2023/04/05 10:30:46;;;;;;;2.38;0.90;;;;;;;8.66;49.75;101452.63;5174203;28;20258;-73
2023/04/05 10:33:35;;;;;;;2.78;1.20;;;;;;;9.40;51.33;101451.47;5177519;28;20037;-72
2023/04/05 10:36:08;;;;;;;4.55;1.10;;;;;;;9.76;49.62;101442.13;5177016;28;20025;-74
2023/04/05 10:38:57;;;;;;;1.90;1.00;;;;;;;10.28;50.09;101437.63;5152631;28;20495;-73
2023/04/05 10:41:29;;;;;;;2.58;1.00;;;;;;;9.72;49.02;101432.63;5170873;28;20061;-73
2023/04/05 10:44:02;;;;;;;2.83;1.10;;;;;;;9.14;48.45;101443.19;5176986;28;20038;-72
2023/04/05 10:46:33;;;;;;;7.05;1.33;;;;;;;9.34;47.12;101435.06;5163691;28;20021;-73
2023/04/05 10:49:25;;;;;;;4.40;0.90;;;;;;;9.49;48.07;101434.78;5169510;28;20061;-72
2023/04/05 10:51:56;;;;;;;2.33;1.17;;;;;;;8.72;51.55;101431.72;5171967;28;20026;-72
2023/04/05 10:54:27;;;;;;;2.75;1.30;;;;;;;8.93;50.98;101439.22;5173984;28;20037;-72
2023/04/05 10:57:00;;;;;;;2.78;1.20;;;;;;;9.09;49.99;101436.31;5158590;28;20345;-72
2023/04/05 10:59:30;;;;;;;2.10;1.05;;;;;;;9.34;51.43;101430.69;5173521;28;20468;-72
2023/04/05 11:02:03;;;;;;;3.50;1.17;;;;;;;9.41;52.35;101421.00;5157759;28;20295;-73
2023/04/05 11:04:33;;;;;;;2.45;0.98;;;;;;;8.86;50.09;101429.78;5174157;28;20021;-72
2023/04/05 11:07:11;;;;;;;4.10;1.02;;;;;;;8.85;51.49;101433.22;5175026;28;20060;-71
2023/04/05 11:09:54;;;;;;;2.25;1.02;;;;;;;8.49;50.56;101420.72;5175529;28;20249;-73
2023/04/05 11:12:52;;;;;;;3.30;1.30;;;;;;;8.29;49.75;101427.94;5170964;28;20049;-72
2023/04/05 11:15:31;;;;;;;2.13;1.10;;;;;;;8.55;51.36;101418.91;5176446;28;20033;-75
2023/04/05 11:18:06;;;;;;;4.30;1.20;;;;;;;8.63;51.62;101414.47;5151978;28;20508;-73
2023/04/05 11:20:51;;;;;;;2.80;1.30;;;;;;;8.39;51.03;101416.53;5175960;28;20468;-74
2023/04/05 11:23:23;;;;;;;2.55;1.13;;;;;;;8.20;50.43;101415.06;5174504;28;20858;-72
2023/04/05 11:25:59;;;;;;;4.18;1.50;;;;;;;8.34;51.17;101413.13;5173296;28;20033;-73
2023/04/05 11:28:38;;;;;;;2.85;1.17;;;;;;;9.10;54.10;101398.94;5178303;28;20404;-73
2023/04/05 11:31:13;;;;;;;2.55;1.20;;;;;;;9.40;53.16;101401.03;5158086;28;20030;-73
2023/04/05 11:33:43;;;;;;;3.20;1.17;;;;;;;9.71;54.46;101404.81;5172596;28;20030;-74
2023/04/05 11:36:30;;;;;;;3.37;1.20;;;;;;;9.67;50.49;101388.34;5175572;28;20040;-74
2023/04/05 11:39:21;;;;;;;2.83;1.10;;;;;;;10.04;49.46;101388.53;5172949;28;20453;-73
2023/04/05 11:42:03;;;;;;;3.75;1.40;;;;;;;9.99;50.42;101385.13;5175416;28;20045;-73
2023/04/05 11:44:45;;;;;;;2.83;1.20;;;;;;;10.14;50.28;101384.84;5154737;28;20035;-72
2023/04/05 11:47:17;;;;;;;3.85;1.48;;;;;;;9.47;49.85;101381.78;5173831;28;20120;-73
2023/04/05 11:49:51;;;;;;;3.75;1.15;;;;;;;9.58;49.22;101385.03;5154848;28;20025;-72
2023/04/05 11:52:21;;;;;;;4.20;1.00;;;;;;;9.95;47.86;101379.09;5174889;28;20036;-73
2023/04/05 11:54:51;;;;;;;4.25;1.42;;;;;;;9.78;47.66;101377.69;5176131;28;20021;-72
2023/04/05 11:57:22;;;;;;;3.33;1.00;;;;;;;9.25;48.46;101372.59;5172380;28;20491;-74